Pagina principale
METAR-TAF:

METAR-TAF

Aeroporti :

Aeroporto di Copenaghen

Copenaghen, Danimarca

latitudine: 55-37N, longitudine: 012-39E, altezza: 5 m

Osservazione

Il bollettino è stato emesso 10 minuti fa, alle 17:50 UTC
Vento 3 kt da ovest
Temperature 10°C
Umidità 76%
Pressione 1024 hPa
Visibilità 10 km o più
Poco nuvoloso ad un'altezza di 3500 ft
Nuvoloso ad un'altezza di 3900 ft

METAR: EKCH 191750Z 26003KT 9999 FEW035 BKN039 10/06 Q1024 NOSIG

Ora: 20:00 (18:00 UTC)

Previsione

Il bollettino è stato emesso 59 minuti fa, alle 17:01 UTC
Previsione valida dal 19 alle 18 UTC al 20 alle 18 UTC
Vento 8 kt da ovest/nord-ovest
Visibilità 10 km o più
Nubi sparse ad un'altezza di 3000 ft
Temporaneamente
dal 20 alle 06 UTC al 20 alle 10 UTC
Nuvoloso ad un'altezza di 1200 ft

TAF: EKCH 191701Z 1918/2018 30008KT 9999 SCT030 TEMPO 2006/2010 BKN012

Osservazioni e previsioni meteorologiche di più di 4000 aeroporti (messaggi METAR e TAF).

Le stazioni disponibili sono rappresentate dai dischi gialli e rossi sulla carta.

Puntare il mouse per vedere il nome della stazione.

Clicca sopra per visualizzare le osservazioni e previsioni meteorologiche.

Per cambiare la mappa : fare clic sui pulsanti verdi con una croce nera per ingrandire, il pulsante verde con un trattino per diminuire, o sulla freccia verde per le mappe adiacenti.


METAR-TAF: